Time;durP1;ratioP1;P1;durP2;ratioP2;P2;SDS_P1;SDS_P2;PMS_P1;PMS_P2;Temp;Humidity;BMP_temperature;BMP_pressure;BME280_temperature;BME280_humidity;BME280_pressure;Samples;Min_cycle;Max_cycle;Signal;HPM_P1;HPM_P2
2023/08/02 00:00:21;;;;;;;4.78;0.80;;;16.30;99.90;;;;;;5093510;28;20405;-71
2023/08/02 00:02:46;;;;;;;4.13;1.07;;;16.30;99.90;;;;;;5100925;28;20478;-71
2023/08/02 00:05:12;;;;;;;3.10;0.60;;;16.20;99.90;;;;;;5100424;28;20388;-71
2023/08/02 00:07:37;;;;;;;2.95;0.80;;;16.20;99.90;;;;;;5100645;28;20892;-71
2023/08/02 00:10:03;;;;;;;2.83;0.70;;;16.20;99.90;;;;;;5092824;28;20815;-71
2023/08/02 00:12:29;;;;;;;2.35;0.68;;;16.20;99.90;;;;;;5099957;28;20409;-70
2023/08/02 00:14:54;;;;;;;4.37;0.67;;;16.20;99.90;;;;;;5096140;28;20464;-71
2023/08/02 00:17:20;;;;;;;3.83;0.77;;;16.20;99.90;;;;;;5105753;28;20400;-71
2023/08/02 00:19:45;;;;;;;4.40;0.90;;;16.20;99.90;;;;;;5106444;28;20404;-71
2023/08/02 00:22:11;;;;;;;4.90;0.80;;;16.20;99.90;;;;;;5105262;28;20792;-71
2023/08/02 00:24:37;;;;;;;3.38;0.80;;;16.20;99.90;;;;;;5095650;28;20439;-71
2023/08/02 00:27:02;;;;;;;4.30;0.97;;;16.20;99.90;;;;;;5093782;28;20410;-71
2023/08/02 00:29:28;;;;;;;4.53;0.90;;;16.20;99.90;;;;;;5107154;28;20396;-71
2023/08/02 00:31:53;;;;;;;4.10;0.97;;;16.20;99.90;;;;;;5092054;28;20757;-71
2023/08/02 00:34:19;;;;;;;3.43;0.87;;;16.30;99.90;;;;;;5106604;28;20402;-71
2023/08/02 00:36:45;;;;;;;2.45;0.73;;;16.20;99.90;;;;;;5104830;28;20826;-71
2023/08/02 00:39:10;;;;;;;5.63;1.23;;;16.30;99.90;;;;;;5106478;28;20405;-71
2023/08/02 00:41:36;;;;;;;5.20;1.00;;;16.30;99.90;;;;;;5104526;28;20400;-71
2023/08/02 00:44:01;;;;;;;3.78;0.98;;;16.30;99.90;;;;;;5106125;28;20740;-71
2023/08/02 00:46:27;;;;;;;4.03;1.00;;;16.30;99.90;;;;;;5103678;28;20489;-71
2023/08/02 00:48:53;;;;;;;3.70;0.77;;;16.20;99.90;;;;;;5104421;28;20431;-70
2023/08/02 00:51:19;;;;;;;3.37;0.70;;;16.30;99.90;;;;;;5092988;28;20402;-71
2023/08/02 00:53:46;;;;;;;4.28;0.90;;;16.20;99.90;;;;;;5102985;28;20473;-70
2023/08/02 00:56:15;;;;;;;4.47;0.70;;;16.20;99.90;;;;;;5101068;28;21207;-71
2023/08/02 00:58:41;;;;;;;6.17;1.00;;;16.30;99.90;;;;;;5103688;28;20471;-70
2023/08/02 01:01:07;;;;;;;4.18;0.80;;;16.20;99.90;;;;;;5102369;28;20409;-70
2023/08/02 01:03:38;;;;;;;3.83;0.88;;;16.20;99.90;;;;;;5104121;28;21163;-70
2023/08/02 01:06:44;;;;;;;4.20;0.90;;;16.20;99.90;;;;;;5101362;28;20408;-71
2023/08/02 01:09:35;;;;;;;3.00;0.80;;;16.20;99.90;;;;;;5098873;28;20417;-70
2023/08/02 01:12:07;;;;;;;4.30;0.97;;;16.30;99.90;;;;;;5096404;28;20416;-71
2023/08/02 01:14:35;;;;;;;5.43;1.20;;;16.20;99.90;;;;;;5090744;28;20890;-71
2023/08/02 01:17:03;;;;;;;5.32;1.00;;;16.30;99.90;;;;;;5106356;28;20553;-71
2023/08/02 01:19:31;;;;;;;4.18;1.23;;;16.30;99.90;;;;;;5104945;28;20411;-70
2023/08/02 01:21:56;;;;;;;2.40;1.10;;;16.30;99.90;;;;;;5106528;28;20423;-71
2023/08/02 01:24:32;;;;;;;2.85;0.85;;;16.30;99.90;;;;;;5104222;28;21282;-70
2023/08/02 01:27:00;;;;;;;5.10;1.45;;;16.30;99.90;;;;;;5104786;28;20405;-71
2023/08/02 01:29:28;;;;;;;5.25;1.52;;;16.30;99.90;;;;;;5087726;28;20382;-71
2023/08/02 01:31:57;;;;;;;6.57;1.58;;;16.30;99.90;;;;;;5099378;28;20404;-70
2023/08/02 01:34:24;;;;;;;3.47;1.17;;;16.30;99.90;;;;;;5094533;28;20396;-71
2023/08/02 01:36:50;;;;;;;4.95;1.33;;;16.30;99.90;;;;;;5103478;28;20432;-70
2023/08/02 01:39:16;;;;;;;3.88;1.40;;;16.30;99.90;;;;;;5082838;28;20484;-70
2023/08/02 01:41:42;;;;;;;6.53;1.63;;;16.30;99.90;;;;;;5103395;28;20400;-70
2023/08/02 01:44:08;;;;;;;5.05;1.52;;;16.30;99.90;;;;;;5083702;28;20436;-71
2023/08/02 01:46:33;;;;;;;8.10;1.50;;;16.30;99.90;;;;;;5090369;28;20409;-71
2023/08/02 01:48:59;;;;;;;4.55;2.00;;;16.30;99.90;;;;;;5103691;28;20408;-71
2023/08/02 01:51:25;;;;;;;9.23;2.00;;;16.30;99.90;;;;;;5101404;28;20405;-71
2023/08/02 01:53:50;;;;;;;5.40;1.67;;;16.30;99.90;;;;;;5098061;28;20406;-71
2023/08/02 01:56:17;;;;;;;7.50;1.77;;;16.20;99.90;;;;;;5097553;28;20789;-71
2023/08/02 01:58:42;;;;;;;5.20;1.73;;;16.30;99.90;;;;;;5104285;28;20453;-71
2023/08/02 02:01:08;;;;;;;9.00;2.10;;;16.20;99.90;;;;;;5102705;28;20419;-72
2023/08/02 02:03:33;;;;;;;5.83;1.70;;;16.20;99.90;;;;;;5102593;28;20894;-71
2023/08/02 02:05:59;;;;;;;5.87;1.67;;;16.20;99.90;;;;;;5101199;28;20404;-71
2023/08/02 02:08:25;;;;;;;6.60;2.03;;;16.20;99.90;;;;;;5102345;28;20405;-72
2023/08/02 02:10:54;;;;;;;5.93;2.03;;;16.20;99.90;;;;;;5100837;28;20422;-72
2023/08/02 02:13:24;;;;;;;5.85;2.10;;;16.30;99.90;;;;;;5078616;28;20434;-70
2023/08/02 02:15:50;;;;;;;6.07;2.03;;;16.20;99.90;;;;;;5098617;28;20880;-70
2023/08/02 02:18:16;;;;;;;6.60;2.08;;;16.20;99.90;;;;;;5099007;28;20443;-70
2023/08/02 02:20:41;;;;;;;7.80;2.30;;;16.20;99.90;;;;;;5108229;28;20409;-70
2023/08/02 02:23:07;;;;;;;7.70;2.50;;;16.20;99.90;;;;;;5110334;28;20391;-72
2023/08/02 02:25:33;;;;;;;6.70;2.40;;;16.20;99.90;;;;;;5108762;28;20447;-70
2023/08/02 02:27:58;;;;;;;6.68;2.60;;;16.20;99.90;;;;;;5091455;28;20486;-70
2023/08/02 02:30:24;;;;;;;6.40;2.57;;;16.20;99.90;;;;;;5106606;28;20414;-71
2023/08/02 02:32:50;;;;;;;8.02;3.10;;;16.20;99.90;;;;;;5109701;28;20497;-70
2023/08/02 02:35:15;;;;;;;7.47;3.20;;;16.20;99.90;;;;;;5106113;28;20466;-70
2023/08/02 02:37:42;;;;;;;8.50;3.03;;;16.20;99.90;;;;;;5098091;28;20404;-70
2023/08/02 02:40:09;;;;;;;8.77;3.22;;;16.10;99.90;;;;;;5088765;28;20421;-71
2023/08/02 02:42:35;;;;;;;8.25;3.05;;;16.10;99.90;;;;;;5094977;28;20741;-71
2023/08/02 02:45:00;;;;;;;7.07;2.90;;;16.10;99.90;;;;;;5084460;28;20415;-71
2023/08/02 02:47:26;;;;;;;12.30;3.15;;;16.10;99.90;;;;;;5092093;28;20458;-71
2023/08/02 02:49:52;;;;;;;6.68;3.13;;;16.10;99.90;;;;;;5105860;28;20412;-71
2023/08/02 02:52:17;;;;;;;9.23;3.03;;;16.10;99.90;;;;;;5100879;28;20794;-71
2023/08/02 02:54:43;;;;;;;8.43;2.93;;;16.10;99.90;;;;;;5093047;28;20405;-71
2023/08/02 02:57:09;;;;;;;6.65;2.88;;;16.10;99.90;;;;;;5096993;28;20860;-71
2023/08/02 02:59:35;;;;;;;7.10;3.22;;;16.10;99.90;;;;;;5107954;28;20495;-71
2023/08/02 03:02:01;;;;;;;7.40;3.10;;;16.10;99.90;;;;;;5103775;28;20811;-71
2023/08/02 03:04:27;;;;;;;8.53;3.77;;;16.20;99.90;;;;;;5101701;28;20400;-71
2023/08/02 03:06:53;;;;;;;10.15;3.30;;;16.10;99.90;;;;;;5096081;28;20894;-71
2023/08/02 03:09:19;;;;;;;11.85;3.95;;;16.10;99.90;;;;;;5096812;28;20779;-71
2023/08/02 03:11:45;;;;;;;8.57;3.20;;;16.20;99.90;;;;;;5107057;28;20400;-71
2023/08/02 03:14:12;;;;;;;9.07;3.60;;;16.10;99.90;;;;;;5095209;28;20443;-71
2023/08/02 03:16:38;;;;;;;9.33;3.40;;;16.10;99.90;;;;;;5110294;28;20485;-71
2023/08/02 03:19:04;;;;;;;10.65;3.92;;;16.10;99.90;;;;;;5109643;28;20750;-69
2023/08/02 03:21:30;;;;;;;9.00;3.50;;;16.10;99.90;;;;;;5110193;28;20893;-69
2023/08/02 03:23:56;;;;;;;8.68;3.75;;;16.10;99.90;;;;;;5109198;28;20454;-70
2023/08/02 03:26:21;;;;;;;9.20;3.53;;;16.10;99.90;;;;;;5109352;28;20453;-70
2023/08/02 03:28:47;;;;;;;7.88;3.60;;;16.10;99.90;;;;;;5107367;28;20404;-70
2023/08/02 03:31:12;;;;;;;10.73;3.80;;;16.10;99.90;;;;;;5108859;28;20431;-71
2023/08/02 03:33:38;;;;;;;8.63;4.03;;;16.10;99.90;;;;;;5095657;28;20424;-71
2023/08/02 03:36:04;;;;;;;7.50;3.55;;;16.10;99.90;;;;;;5108951;28;20455;-71
2023/08/02 03:38:29;;;;;;;9.50;3.93;;;16.00;99.90;;;;;;5107929;28;20932;-71
2023/08/02 03:40:55;;;;;;;6.75;3.80;;;16.10;99.90;;;;;;5109995;28;20479;-71
2023/08/02 03:43:21;;;;;;;11.05;3.97;;;16.00;99.90;;;;;;5095202;28;20453;-71
2023/08/02 03:45:48;;;;;;;9.10;3.63;;;16.00;99.90;;;;;;5108486;28;21270;-71
2023/08/02 03:48:14;;;;;;;8.23;3.90;;;16.00;99.90;;;;;;5093573;28;20400;-71
2023/08/02 03:50:39;;;;;;;9.18;3.67;;;16.00;99.90;;;;;;5107131;28;20491;-71
2023/08/02 03:53:05;;;;;;;9.63;4.15;;;16.00;99.90;;;;;;5093321;28;20489;-69
2023/08/02 03:55:31;;;;;;;8.37;3.63;;;16.00;99.90;;;;;;5108349;28;20429;-69
2023/08/02 03:57:57;;;;;;;9.88;4.13;;;16.00;99.90;;;;;;5101359;28;20418;-70
2023/08/02 04:00:22;;;;;;;10.10;4.13;;;16.00;99.90;;;;;;5099273;28;20464;-70
2023/08/02 04:02:48;;;;;;;12.23;4.05;;;16.00;99.90;;;;;;5106937;28;20487;-70
2023/08/02 04:05:13;;;;;;;6.93;3.67;;;16.00;99.90;;;;;;5107301;28;21046;-71
2023/08/02 04:07:39;;;;;;;10.43;4.68;;;16.00;99.90;;;;;;5104398;28;20392;-71
2023/08/02 04:10:05;;;;;;;9.03;4.00;;;16.00;99.90;;;;;;5107326;28;20457;-71
2023/08/02 04:12:31;;;;;;;12.00;3.83;;;16.00;99.90;;;;;;5100783;28;20423;-71
2023/08/02 04:14:57;;;;;;;11.07;3.70;;;16.00;99.90;;;;;;5098748;28;20408;-71
2023/08/02 04:17:25;;;;;;;10.13;4.10;;;16.00;99.90;;;;;;5103830;28;20424;-71
2023/08/02 04:19:51;;;;;;;13.20;4.45;;;16.00;99.90;;;;;;5105146;28;20419;-71
2023/08/02 04:22:16;;;;;;;13.68;3.75;;;16.00;99.90;;;;;;5103927;28;20400;-71
2023/08/02 04:24:42;;;;;;;10.50;3.60;;;16.00;99.90;;;;;;5105897;28;20396;-71
2023/08/02 04:27:07;;;;;;;12.43;4.10;;;16.00;99.90;;;;;;5092182;28;20401;-71
2023/08/02 04:29:33;;;;;;;12.90;4.05;;;16.00;99.90;;;;;;5088254;28;20496;-71
2023/08/02 04:31:59;;;;;;;17.60;4.97;;;16.00;99.90;;;;;;5103313;28;21229;-71
2023/08/02 04:34:24;;;;;;;12.95;4.75;;;16.00;99.90;;;;;;5106231;28;20408;-71
2023/08/02 04:36:51;;;;;;;12.40;4.80;;;16.00;99.90;;;;;;5103231;28;20424;-71
2023/08/02 04:39:17;;;;;;;13.38;5.15;;;16.00;99.90;;;;;;5105596;28;21019;-71
2023/08/02 04:41:43;;;;;;;16.10;5.10;;;16.00;99.90;;;;;;5100828;28;20406;-72
2023/08/02 04:44:08;;;;;;;12.32;5.20;;;16.10;99.90;;;;;;5104595;28;20919;-71
2023/08/02 04:46:34;;;;;;;16.13;4.77;;;16.00;99.90;;;;;;5097804;28;20488;-71
2023/08/02 04:48:59;;;;;;;13.30;4.82;;;16.00;99.90;;;;;;5099459;28;20546;-71
2023/08/02 04:51:25;;;;;;;14.10;5.23;;;16.00;99.90;;;;;;5092900;28;20731;-70
2023/08/02 04:53:51;;;;;;;16.27;5.77;;;16.00;99.90;;;;;;5107739;28;20803;-70
2023/08/02 04:56:17;;;;;;;15.77;5.13;;;16.00;99.90;;;;;;5106598;28;20436;-70
2023/08/02 04:58:43;;;;;;;15.40;4.95;;;16.10;99.90;;;;;;5107915;28;20471;-70
2023/08/02 05:01:09;;;;;;;15.35;5.40;;;16.10;99.90;;;;;;5105693;28;20400;-70
2023/08/02 05:03:35;;;;;;;13.35;5.60;;;16.10;99.90;;;;;;5107630;28;20404;-70
2023/08/02 05:06:02;;;;;;;15.23;5.22;;;16.00;99.90;;;;;;5088849;28;20512;-70
2023/08/02 05:08:36;;;;;;;15.40;5.35;;;16.10;99.90;;;;;;5100343;28;20404;-70
2023/08/02 05:11:08;;;;;;;15.55;5.10;;;16.10;99.90;;;;;;5100016;28;20401;-70
2023/08/02 05:13:34;;;;;;;17.05;5.53;;;16.10;99.90;;;;;;5099970;28;20400;-70
2023/08/02 05:15:59;;;;;;;14.93;5.40;;;16.10;99.90;;;;;;5107239;28;20778;-70
2023/08/02 05:18:25;;;;;;;18.10;5.72;;;16.10;99.90;;;;;;5105939;28;20400;-70
2023/08/02 05:20:52;;;;;;;16.37;5.53;;;16.10;99.90;;;;;;5106738;28;20408;-70
2023/08/02 05:23:18;;;;;;;15.30;5.50;;;16.10;99.90;;;;;;5105298;28;20408;-70
2023/08/02 05:25:44;;;;;;;12.98;5.85;;;16.10;99.90;;;;;;5103219;28;20403;-70
2023/08/02 05:28:09;;;;;;;14.03;5.77;;;16.20;99.90;;;;;;5103494;28;20407;-70
2023/08/02 05:30:36;;;;;;;15.82;5.68;;;16.10;99.90;;;;;;5104046;28;20404;-70
2023/08/02 05:33:02;;;;;;;12.55;5.65;;;16.20;99.90;;;;;;5103389;28;20755;-69
2023/08/02 05:35:29;;;;;;;13.43;6.23;;;16.20;99.90;;;;;;5103438;28;20431;-69
2023/08/02 05:37:55;;;;;;;16.02;5.82;;;16.20;99.90;;;;;;5090403;28;20484;-69
2023/08/02 05:40:21;;;;;;;14.10;5.82;;;16.20;99.90;;;;;;5091172;28;20407;-76
2023/08/02 05:42:48;;;;;;;19.10;6.05;;;16.20;99.90;;;;;;5095619;28;20454;-70
2023/08/02 05:45:13;;;;;;;15.02;5.88;;;16.20;99.90;;;;;;5096789;28;20929;-70
2023/08/02 05:47:39;;;;;;;14.73;6.25;;;16.20;99.90;;;;;;5091234;28;20406;-70
2023/08/02 05:50:05;;;;;;;15.85;5.78;;;16.20;99.90;;;;;;5082533;28;20529;-70
2023/08/02 05:52:31;;;;;;;16.08;6.22;;;16.20;99.90;;;;;;5105048;28;20450;-70
2023/08/02 05:54:56;;;;;;;15.70;5.73;;;16.30;99.90;;;;;;5082144;28;20412;-70
2023/08/02 05:57:22;;;;;;;17.05;6.57;;;16.30;99.90;;;;;;5105881;28;20424;-70
2023/08/02 05:59:51;;;;;;;15.27;6.47;;;16.30;99.90;;;;;;5094990;28;20416;-70
2023/08/02 06:02:17;;;;;;;11.85;5.82;;;16.30;99.90;;;;;;5104104;28;20441;-71
2023/08/02 06:04:44;;;;;;;16.13;6.20;;;16.30;99.90;;;;;;5099342;28;20798;-70
2023/08/02 06:07:10;;;;;;;11.73;5.63;;;16.30;99.90;;;;;;5097591;28;20426;-70
2023/08/02 06:09:36;;;;;;;14.48;5.97;;;16.30;99.90;;;;;;5094393;28;20400;-70
2023/08/02 06:12:02;;;;;;;12.97;5.87;;;16.30;99.90;;;;;;5092689;28;20402;-70
2023/08/02 06:14:28;;;;;;;12.35;5.85;;;16.40;99.90;;;;;;5106097;28;20392;-70
2023/08/02 06:16:54;;;;;;;14.75;6.15;;;16.30;99.90;;;;;;5103540;28;20450;-70
2023/08/02 06:19:19;;;;;;;14.30;5.47;;;16.40;99.90;;;;;;5106346;28;20479;-70
2023/08/02 06:21:45;;;;;;;12.15;5.50;;;16.40;99.90;;;;;;5103699;28;20815;-71
2023/08/02 06:24:10;;;;;;;15.37;6.47;;;16.40;99.90;;;;;;5103932;28;20408;-70
2023/08/02 06:26:36;;;;;;;12.70;5.80;;;16.50;99.90;;;;;;5103324;28;20392;-70
2023/08/02 06:29:02;;;;;;;14.82;6.30;;;16.50;99.90;;;;;;5105184;28;20397;-70
2023/08/02 06:31:28;;;;;;;14.50;6.15;;;16.50;99.90;;;;;;5103295;28;21199;-70
2023/08/02 06:33:53;;;;;;;16.10;5.60;;;16.50;99.90;;;;;;5105204;28;20440;-70
2023/08/02 06:36:19;;;;;;;12.57;5.50;;;16.60;99.90;;;;;;5102016;28;20428;-70
2023/08/02 06:38:46;;;;;;;11.55;5.78;;;16.60;99.90;;;;;;5103057;28;20493;-70
2023/08/02 06:41:12;;;;;;;11.88;5.90;;;16.70;99.90;;;;;;5101120;28;20497;-71
2023/08/02 06:43:37;;;;;;;14.77;6.33;;;16.70;99.90;;;;;;5103806;28;20404;-70
2023/08/02 06:46:03;;;;;;;13.60;6.30;;;16.70;99.90;;;;;;5102417;28;20400;-70
2023/08/02 06:48:28;;;;;;;15.10;6.22;;;16.70;99.90;;;;;;5094656;28;20478;-70
2023/08/02 06:50:54;;;;;;;12.47;6.00;;;16.70;99.90;;;;;;5104925;28;20915;-71
2023/08/02 06:53:20;;;;;;;13.32;6.32;;;16.80;99.90;;;;;;5082853;28;20457;-71
2023/08/02 06:55:46;;;;;;;14.50;6.80;;;16.80;99.90;;;;;;5104186;28;20417;-70
2023/08/02 06:58:12;;;;;;;11.47;6.10;;;16.90;99.90;;;;;;5099397;28;20749;-70
2023/08/02 07:00:40;;;;;;;12.93;6.50;;;16.90;99.90;;;;;;5097916;28;20838;-70
2023/08/02 07:03:06;;;;;;;14.10;6.75;;;16.90;99.90;;;;;;5099250;28;20481;-71
2023/08/02 07:05:32;;;;;;;15.57;7.00;;;16.80;99.90;;;;;;5101046;28;22059;-70
2023/08/02 07:07:59;;;;;;;13.00;6.93;;;16.80;99.90;;;;;;5106476;28;20397;-70
2023/08/02 07:10:27;;;;;;;10.57;6.32;;;16.90;99.90;;;;;;5106547;27;20927;-71
2023/08/02 07:12:53;;;;;;;14.05;6.88;;;16.90;99.90;;;;;;5107680;28;20396;-71
2023/08/02 07:15:19;;;;;;;13.10;7.13;;;16.90;99.90;;;;;;5105247;28;20814;-70
2023/08/02 07:17:45;;;;;;;10.73;6.87;;;16.90;99.90;;;;;;5106606;28;20491;-70
2023/08/02 07:20:12;;;;;;;12.02;6.53;;;17.00;99.90;;;;;;5106148;28;20412;-71
2023/08/02 07:22:38;;;;;;;13.10;6.80;;;17.10;99.90;;;;;;5089522;28;20897;-70
2023/08/02 07:25:04;;;;;;;11.73;5.85;;;17.10;99.90;;;;;;5094566;28;20394;-70
2023/08/02 07:27:29;;;;;;;13.75;5.97;;;17.20;99.90;;;;;;5105415;28;20411;-70
2023/08/02 07:29:56;;;;;;;13.07;5.85;;;17.20;99.90;;;;;;5095162;28;20430;-70
2023/08/02 07:32:23;;;;;;;8.52;5.55;;;17.20;99.90;;;;;;5087892;28;20404;-70
2023/08/02 07:34:48;;;;;;;9.07;5.00;;;17.30;99.90;;;;;;5104604;28;20406;-70
2023/08/02 07:37:14;;;;;;;11.00;5.97;;;17.30;99.90;;;;;;5100424;28;20436;-70
2023/08/02 07:39:40;;;;;;;11.37;5.63;;;17.30;99.90;;;;;;5096726;28;20398;-70
2023/08/02 07:42:07;;;;;;;12.90;6.50;;;17.30;99.90;;;;;;5095946;28;20401;-70
2023/08/02 07:44:32;;;;;;;9.65;5.82;;;17.40;99.90;;;;;;5093002;28;20485;-70
2023/08/02 07:46:58;;;;;;;13.47;5.40;;;17.30;99.90;;;;;;5088798;28;20490;-70
2023/08/02 07:49:24;;;;;;;11.48;5.47;;;17.30;99.90;;;;;;5102729;28;20403;-70
2023/08/02 07:51:49;;;;;;;11.05;5.30;;;17.30;99.90;;;;;;5082461;28;20406;-70
2023/08/02 07:54:15;;;;;;;10.93;5.00;;;17.30;99.90;;;;;;5101742;28;20524;-71
2023/08/02 07:56:40;;;;;;;12.23;5.47;;;17.40;99.90;;;;;;5099837;28;20425;-70
2023/08/02 07:59:06;;;;;;;10.93;5.37;;;17.50;99.90;;;;;;5089098;28;20405;-71
2023/08/02 08:01:32;;;;;;;11.23;4.75;;;17.50;99.90;;;;;;5097294;28;20388;-70
2023/08/02 08:03:57;;;;;;;11.20;4.75;;;17.50;99.90;;;;;;5105983;28;20513;-70
2023/08/02 08:06:26;;;;;;;9.40;4.47;;;17.50;99.90;;;;;;5107794;28;20450;-70
2023/08/02 08:08:52;;;;;;;7.15;3.83;;;17.50;99.90;;;;;;5105558;28;20447;-70
2023/08/02 08:11:18;;;;;;;8.57;4.30;;;17.50;99.90;;;;;;5107327;28;20396;-70
2023/08/02 08:13:43;;;;;;;11.25;4.55;;;17.40;99.90;;;;;;5093274;28;20478;-71
2023/08/02 08:16:09;;;;;;;9.53;4.07;;;17.30;99.90;;;;;;5106803;28;21584;-70
2023/08/02 08:18:35;;;;;;;10.70;4.05;;;17.40;99.90;;;;;;5086633;28;20516;-71
2023/08/02 08:21:01;;;;;;;8.27;3.70;;;17.40;99.90;;;;;;5108313;28;20465;-71
2023/08/02 08:23:28;;;;;;;9.90;2.95;;;17.40;99.90;;;;;;5104995;28;20401;-71
2023/08/02 08:25:54;;;;;;;11.60;4.00;;;17.40;99.90;;;;;;5108590;28;20389;-71
2023/08/02 08:28:19;;;;;;;7.35;3.45;;;17.40;99.90;;;;;;5104824;28;20424;-70
2023/08/02 08:30:45;;;;;;;8.23;3.13;;;17.40;99.90;;;;;;5107066;28;20403;-71
2023/08/02 08:33:11;;;;;;;9.10;3.17;;;17.40;99.90;;;;;;5104763;28;20756;-70
2023/08/02 08:35:37;;;;;;;9.67;3.30;;;17.40;99.90;;;;;;5107347;28;20425;-71
2023/08/02 08:38:03;;;;;;;8.38;3.15;;;17.40;99.90;;;;;;5103262;28;20791;-71
2023/08/02 08:40:29;;;;;;;7.43;2.80;;;17.30;99.90;;;;;;5107735;28;20501;-71
2023/08/02 08:42:56;;;;;;;8.20;2.80;;;17.20;99.90;;;;;;5104612;28;20417;-72
2023/08/02 08:45:25;;;;;;;7.37;2.93;;;17.30;99.90;;;;;;5107252;28;20445;-72
2023/08/02 08:47:52;;;;;;;7.03;2.67;;;17.30;99.90;;;;;;5092916;28;20400;-72
2023/08/02 08:50:21;;;;;;;7.57;3.60;;;17.30;99.90;;;;;;5107969;28;20407;-71
2023/08/02 08:52:48;;;;;;;9.05;3.35;;;17.30;99.90;;;;;;5105576;28;20938;-72
2023/08/02 08:55:15;;;;;;;7.22;2.95;;;17.20;99.90;;;;;;5106899;28;20392;-73
2023/08/02 08:57:42;;;;;;;9.48;3.17;;;17.20;99.90;;;;;;5104325;28;20418;-72
2023/08/02 09:00:09;;;;;;;7.87;3.50;;;17.20;99.90;;;;;;5107684;28;20869;-72
2023/08/02 09:02:37;;;;;;;9.60;3.57;;;17.10;99.90;;;;;;5104319;28;20948;-72
2023/08/02 09:05:03;;;;;;;7.93;4.03;;;17.00;99.90;;;;;;5097925;28;20459;-72
2023/08/02 09:07:30;;;;;;;10.77;4.00;;;17.00;99.90;;;;;;5102194;28;20487;-72
2023/08/02 09:09:56;;;;;;;10.35;4.32;;;16.90;99.90;;;;;;5106585;28;20420;-72
2023/08/02 09:12:24;;;;;;;11.13;4.90;;;16.80;99.90;;;;;;5103746;28;21060;-72
2023/08/02 09:15:00;;;;;;;11.95;5.07;;;16.70;99.90;;;;;;5106563;28;20514;-72
2023/08/02 09:17:26;;;;;;;8.95;4.57;;;16.60;99.90;;;;;;5102963;28;20428;-70
2023/08/02 09:20:07;;;;;;;11.95;4.97;;;16.60;99.90;;;;;;5105828;28;20399;-71
2023/08/02 09:22:32;;;;;;;11.55;4.65;;;16.50;99.90;;;;;;5103774;28;20407;-71
2023/08/02 09:24:58;;;;;;;11.03;5.40;;;16.40;99.90;;;;;;5104051;28;20410;-71
2023/08/02 09:27:30;;;;;;;10.37;5.10;;;16.30;99.90;;;;;;5103817;28;20898;-70
2023/08/02 09:29:55;;;;;;;8.65;4.75;;;16.30;99.90;;;;;;5101631;28;20495;-71
2023/08/02 09:32:22;;;;;;;11.83;5.20;;;16.20;99.90;;;;;;5104497;28;20468;-70
2023/08/02 09:34:51;;;;;;;10.65;4.80;;;16.20;99.90;;;;;;5091686;28;21023;-70
2023/08/02 09:37:45;;;;;;;11.35;4.20;;;16.10;99.90;;;;;;5104084;28;20430;-70
2023/08/02 09:40:12;;;;;;;12.00;4.20;;;16.10;99.90;;;;;;5099848;28;20780;-70
2023/08/02 09:42:38;;;;;;;10.00;4.30;;;16.10;99.90;;;;;;5103456;28;20399;-70
2023/08/02 09:45:04;;;;;;;8.73;4.30;;;16.10;99.90;;;;;;5099600;28;20392;-70
2023/08/02 09:47:30;;;;;;;13.10;4.38;;;16.10;99.90;;;;;;5092955;28;20508;-70
2023/08/02 09:50:05;;;;;;;9.57;4.20;;;16.00;99.90;;;;;;5104785;28;20483;-70
2023/08/02 09:52:31;;;;;;;11.90;4.50;;;16.00;99.90;;;;;;5103848;28;20408;-70
2023/08/02 09:54:56;;;;;;;12.85;5.88;;;16.00;99.90;;;;;;5103151;28;20411;-70
2023/08/02 09:57:26;;;;;;;11.80;6.77;;;16.00;99.90;;;;;;5090799;28;20486;-70
2023/08/02 09:59:54;;;;;;;11.82;6.20;;;16.00;99.90;;;;;;5086959;28;21312;-70
2023/08/02 10:02:24;;;;;;;11.25;5.80;;;16.10;99.90;;;;;;5097853;28;20400;-70
2023/08/02 10:04:54;;;;;;;12.63;5.55;;;16.10;99.90;;;;;;5104997;28;21055;-71
2023/08/02 10:07:20;;;;;;;10.00;4.90;;;16.10;99.90;;;;;;5100893;28;20458;-71
2023/08/02 10:09:47;;;;;;;10.23;5.05;;;16.20;99.90;;;;;;5104268;28;20472;-71
2023/08/02 10:12:18;;;;;;;10.82;5.30;;;16.30;99.90;;;;;;5100925;28;20390;-70
2023/08/02 10:14:44;;;;;;;11.10;5.55;;;16.30;99.90;;;;;;5105233;28;20513;-71
2023/08/02 10:17:10;;;;;;;12.07;5.55;;;16.50;99.90;;;;;;5100540;28;20429;-71
2023/08/02 10:19:36;;;;;;;12.38;5.20;;;16.50;99.90;;;;;;5095302;28;20396;-71
2023/08/02 10:22:06;;;;;;;10.73;5.45;;;16.60;99.90;;;;;;5101296;28;20394;-70
2023/08/02 10:24:32;;;;;;;11.20;5.23;;;16.70;99.90;;;;;;5105098;28;20397;-71
2023/08/02 10:27:02;;;;;;;11.60;5.15;;;16.80;99.90;;;;;;5100792;28;20394;-70
2023/08/02 10:29:29;;;;;;;11.47;5.67;;;16.80;99.90;;;;;;5103390;28;20419;-70
2023/08/02 10:31:55;;;;;;;11.17;5.20;;;16.70;99.90;;;;;;5101296;28;20915;-70
2023/08/02 10:34:36;;;;;;;11.45;5.20;;;16.70;99.90;;;;;;5104249;28;20403;-70
2023/08/02 10:37:05;;;;;;;10.50;5.20;;;16.70;99.90;;;;;;5099294;28;21023;-70
2023/08/02 10:39:46;;;;;;;10.93;4.85;;;16.60;99.90;;;;;;5106027;28;20461;-71
2023/08/02 10:42:19;;;;;;;8.30;4.78;;;16.60;99.90;;;;;;5088866;28;20803;-70
2023/08/02 10:44:54;;;;;;;11.40;4.50;;;16.50;99.90;;;;;;5103927;28;20437;-70
2023/08/02 10:47:33;;;;;;;9.77;5.15;;;16.40;99.90;;;;;;5098877;28;20405;-71
2023/08/02 10:50:01;;;;;;;8.75;5.03;;;16.30;99.90;;;;;;5096152;28;20910;-70
2023/08/02 10:52:32;;;;;;;12.20;5.50;;;16.30;99.90;;;;;;5107987;28;20932;-70
2023/08/02 10:55:17;;;;;;;10.38;5.18;;;16.40;99.90;;;;;;5081306;28;20409;-70
2023/08/02 10:57:55;;;;;;;12.00;5.60;;;16.40;99.90;;;;;;5102657;28;20406;-70
2023/08/02 11:00:24;;;;;;;9.98;5.32;;;16.40;99.90;;;;;;5101659;28;20407;-70
2023/08/02 11:02:50;;;;;;;8.95;4.97;;;16.40;99.90;;;;;;5090511;28;20874;-70
2023/08/02 11:05:37;;;;;;;10.30;5.20;;;16.50;99.90;;;;;;5089760;28;20788;-70
2023/08/02 11:08:03;;;;;;;10.82;4.85;;;16.50;99.90;;;;;;5101517;28;20424;-70
2023/08/02 11:10:28;;;;;;;10.00;4.78;;;16.50;99.90;;;;;;5101240;28;20832;-70
2023/08/02 11:12:55;;;;;;;10.40;5.40;;;16.60;99.90;;;;;;5108134;28;20404;-70
2023/08/02 11:15:21;;;;;;;8.02;4.82;;;16.70;99.90;;;;;;5104875;28;20405;-70
2023/08/02 11:17:57;;;;;;;8.88;4.72;;;16.70;99.90;;;;;;5097907;28;20796;-70
2023/08/02 11:20:24;;;;;;;7.93;4.20;;;16.70;99.90;;;;;;5102242;28;20397;-70
2023/08/02 11:22:50;;;;;;;8.25;4.80;;;16.70;99.90;;;;;;5106334;28;20492;-70
2023/08/02 11:25:21;;;;;;;7.35;4.20;;;16.70;99.90;;;;;;5101800;28;20577;-70
2023/08/02 11:27:47;;;;;;;9.43;4.80;;;16.80;99.90;;;;;;5105300;28;20400;-70
2023/08/02 11:30:13;;;;;;;7.65;4.25;;;16.90;99.90;;;;;;5101228;28;20390;-70
2023/08/02 11:32:43;;;;;;;6.63;4.20;;;16.90;99.90;;;;;;5106185;28;20918;-70
2023/08/02 11:35:13;;;;;;;6.07;3.37;;;17.00;99.90;;;;;;5091819;27;20918;-70
2023/08/02 11:37:39;;;;;;;6.47;3.47;;;17.10;99.90;;;;;;5104567;28;20432;-70
2023/08/02 11:40:05;;;;;;;7.63;3.72;;;17.10;99.90;;;;;;5100894;28;20404;-70
2023/08/02 11:42:31;;;;;;;5.93;3.60;;;17.10;99.90;;;;;;5096449;28;20401;-70
2023/08/02 11:44:56;;;;;;;5.47;3.30;;;17.20;99.90;;;;;;5090164;28;20794;-70
2023/08/02 11:47:22;;;;;;;6.15;2.90;;;17.10;99.90;;;;;;5089061;28;20406;-70
2023/08/02 11:49:56;;;;;;;4.57;2.80;;;17.10;99.90;;;;;;5106869;28;20396;-70
2023/08/02 11:52:29;;;;;;;5.53;2.83;;;17.00;99.90;;;;;;5109129;28;20408;-70
2023/08/02 11:54:55;;;;;;;4.32;2.70;;;17.00;99.90;;;;;;5109185;28;20407;-70
2023/08/02 11:57:22;;;;;;;4.70;3.00;;;17.00;99.90;;;;;;5107328;28;20420;-70
2023/08/02 11:59:49;;;;;;;5.47;3.10;;;17.00;99.90;;;;;;5108922;28;20480;-70
2023/08/02 12:02:27;;;;;;;5.13;2.70;;;17.00;99.90;;;;;;5106837;28;20423;-70
2023/08/02 12:04:54;;;;;;;4.65;2.55;;;17.00;99.90;;;;;;5088864;28;20898;-70
2023/08/02 12:07:30;;;;;;;5.30;2.60;;;17.00;99.90;;;;;;5104399;28;20405;-70
2023/08/02 12:09:56;;;;;;;4.30;2.50;;;17.00;99.90;;;;;;5099749;28;20507;-70
2023/08/02 12:12:27;;;;;;;3.75;2.20;;;17.00;99.90;;;;;;5103136;28;20413;-70
2023/08/02 12:14:52;;;;;;;4.63;2.00;;;17.00;99.90;;;;;;5088312;28;20930;-70
2023/08/02 12:17:23;;;;;;;3.38;1.90;;;17.00;99.90;;;;;;5103722;28;20416;-70
2023/08/02 12:19:49;;;;;;;3.47;2.10;;;17.10;99.90;;;;;;5107474;28;20417;-70
2023/08/02 12:22:15;;;;;;;4.55;2.40;;;17.20;99.90;;;;;;5100414;28;21554;-71
2023/08/02 12:24:41;;;;;;;3.57;2.07;;;17.20;99.90;;;;;;5100017;28;20468;-70
2023/08/02 12:27:19;;;;;;;4.38;2.17;;;17.30;99.90;;;;;;5101668;28;20501;-71
2023/08/02 12:29:46;;;;;;;4.13;1.60;;;17.30;99.90;;;;;;5104864;28;20389;-70
2023/08/02 12:32:25;;;;;;;2.65;1.50;;;17.30;99.90;;;;;;5103992;28;20409;-70
2023/08/02 12:34:51;;;;;;;2.53;1.50;;;17.40;99.90;;;;;;5104967;28;20888;-71
2023/08/02 12:37:17;;;;;;;1.90;1.00;;;17.40;99.90;;;;;;5106298;28;20427;-71
2023/08/02 12:39:42;;;;;;;2.08;1.30;;;17.50;99.90;;;;;;5091729;28;20477;-71
2023/08/02 12:42:08;;;;;;;5.22;1.65;;;17.40;99.90;;;;;;5096188;28;20507;-70